sensor_id;sensor_type;location;lat;lon;timestamp;temperature;humidity
17998;DHT22;9124;48.144;17.098;2022-09-16T00:02:01;15.00;99.90
17998;DHT22;9124;48.144;17.098;2022-09-16T00:05:47;14.90;99.90
17998;DHT22;9124;48.144;17.098;2022-09-16T00:09:24;14.80;99.90
17998;DHT22;9124;48.144;17.098;2022-09-16T00:13:01;14.70;99.90
17998;DHT22;9124;48.144;17.098;2022-09-16T00:16:38;14.70;99.90
17998;DHT22;9124;48.144;17.098;2022-09-16T00:20:15;14.50;99.90
17998;DHT22;9124;48.144;17.098;2022-09-16T00:23:51;14.40;99.90
17998;DHT22;9124;48.144;17.098;2022-09-16T00:27:28;14.30;99.90
17998;DHT22;9124;48.144;17.098;2022-09-16T00:31:05;14.30;99.90
17998;DHT22;9124;48.144;17.098;2022-09-16T00:34:42;14.20;99.90
17998;DHT22;9124;48.144;17.098;2022-09-16T00:38:18;14.30;99.90
17998;DHT22;9124;48.144;17.098;2022-09-16T00:41:55;14.30;99.90
17998;DHT22;9124;48.144;17.098;2022-09-16T00:45:32;14.30;99.90
17998;DHT22;9124;48.144;17.098;2022-09-16T00:49:30;14.40;99.90
17998;DHT22;9124;48.144;17.098;2022-09-16T00:53:23;14.50;99.90
17998;DHT22;9124;48.144;17.098;2022-09-16T00:57:01;14.70;99.90
17998;DHT22;9124;48.144;17.098;2022-09-16T01:00:41;14.80;99.90
17998;DHT22;9124;48.144;17.098;2022-09-16T01:04:23;14.80;99.90
17998;DHT22;9124;48.144;17.098;2022-09-16T01:08:02;14.90;99.90
17998;DHT22;9124;48.144;17.098;2022-09-16T01:21:11;14.60;99.90
17998;DHT22;9124;48.144;17.098;2022-09-16T01:37:39;14.20;99.90
17998;DHT22;9124;48.144;17.098;2022-09-16T01:41:32;14.20;99.90
17998;DHT22;9124;48.144;17.098;2022-09-16T01:49:27;14.00;99.90
17998;DHT22;9124;48.144;17.098;2022-09-16T01:53:18;13.90;99.90
17998;DHT22;9124;48.144;17.098;2022-09-16T01:57:17;13.90;99.90
17998;DHT22;9124;48.144;17.098;2022-09-16T02:01:02;13.90;99.90
17998;DHT22;9124;48.144;17.098;2022-09-16T02:04:48;13.80;99.90
17998;DHT22;9124;48.144;17.098;2022-09-16T02:08:52;13.80;99.90
17998;DHT22;9124;48.144;17.098;2022-09-16T02:12:34;13.80;99.90
17998;DHT22;9124;48.144;17.098;2022-09-16T02:16:25;13.70;99.90
17998;DHT22;9124;48.144;17.098;2022-09-16T02:20:11;13.70;99.90
17998;DHT22;9124;48.144;17.098;2022-09-16T02:23:55;13.60;99.90
17998;DHT22;9124;48.144;17.098;2022-09-16T02:27:35;13.60;99.90
17998;DHT22;9124;48.144;17.098;2022-09-16T02:31:15;13.70;99.90
17998;DHT22;9124;48.144;17.098;2022-09-16T02:34:53;13.80;99.90
17998;DHT22;9124;48.144;17.098;2022-09-16T02:38:36;13.80;99.90
17998;DHT22;9124;48.144;17.098;2022-09-16T02:42:15;13.80;99.90
17998;DHT22;9124;48.144;17.098;2022-09-16T02:53:54;13.70;99.90
17998;DHT22;9124;48.144;17.098;2022-09-16T02:57:32;13.60;99.90
17998;DHT22;9124;48.144;17.098;2022-09-16T03:01:10;13.50;99.90
17998;DHT22;9124;48.144;17.098;2022-09-16T03:04:49;13.50;99.90
17998;DHT22;9124;48.144;17.098;2022-09-16T03:08:25;13.50;99.90
17998;DHT22;9124;48.144;17.098;2022-09-16T03:16:11;13.40;99.90
17998;DHT22;9124;48.144;17.098;2022-09-16T03:24:08;13.40;99.90
17998;DHT22;9124;48.144;17.098;2022-09-16T03:32:22;13.40;99.90
17998;DHT22;9124;48.144;17.098;2022-09-16T03:36:04;13.40;99.90
17998;DHT22;9124;48.144;17.098;2022-09-16T03:39:41;13.40;99.90
17998;DHT22;9124;48.144;17.098;2022-09-16T03:43:18;13.40;99.90
17998;DHT22;9124;48.144;17.098;2022-09-16T03:56:25;13.40;99.90
17998;DHT22;9124;48.144;17.098;2022-09-16T04:09:34;13.30;99.90
17998;DHT22;9124;48.144;17.098;2022-09-16T04:13:12;13.30;99.90
17998;DHT22;9124;48.144;17.098;2022-09-16T04:16:49;13.30;99.90
17998;DHT22;9124;48.144;17.098;2022-09-16T04:20:26;13.30;99.90
17998;DHT22;9124;48.144;17.098;2022-09-16T04:24:03;13.40;99.90
17998;DHT22;9124;48.144;17.098;2022-09-16T04:27:39;13.40;99.90
17998;DHT22;9124;48.144;17.098;2022-09-16T04:31:16;13.50;99.90
17998;DHT22;9124;48.144;17.098;2022-09-16T04:34:53;13.60;99.90
17998;DHT22;9124;48.144;17.098;2022-09-16T04:38:31;13.60;99.90
17998;DHT22;9124;48.144;17.098;2022-09-16T04:42:08;13.70;99.90
17998;DHT22;9124;48.144;17.098;2022-09-16T04:45:50;13.80;99.90
17998;DHT22;9124;48.144;17.098;2022-09-16T04:49:26;13.80;99.90
17998;DHT22;9124;48.144;17.098;2022-09-16T04:53:04;13.90;99.90
17998;DHT22;9124;48.144;17.098;2022-09-16T04:56:41;14.00;99.90
17998;DHT22;9124;48.144;17.098;2022-09-16T05:00:18;14.00;99.90
17998;DHT22;9124;48.144;17.098;2022-09-16T05:03:57;14.10;99.90
17998;DHT22;9124;48.144;17.098;2022-09-16T05:07:35;14.20;99.90
17998;DHT22;9124;48.144;17.098;2022-09-16T05:11:20;14.20;99.90
17998;DHT22;9124;48.144;17.098;2022-09-16T05:14:58;14.30;99.90
17998;DHT22;9124;48.144;17.098;2022-09-16T05:18:36;14.40;99.90
17998;DHT22;9124;48.144;17.098;2022-09-16T05:22:13;14.50;99.90
17998;DHT22;9124;48.144;17.098;2022-09-16T05:25:49;14.60;99.90
17998;DHT22;9124;48.144;17.098;2022-09-16T05:29:26;14.70;99.90
17998;DHT22;9124;48.144;17.098;2022-09-16T05:33:03;14.90;99.90
17998;DHT22;9124;48.144;17.098;2022-09-16T05:36:40;14.90;99.90
17998;DHT22;9124;48.144;17.098;2022-09-16T05:40:19;15.00;99.90
17998;DHT22;9124;48.144;17.098;2022-09-16T05:49:24;15.20;99.90
17998;DHT22;9124;48.144;17.098;2022-09-16T05:53:01;15.30;99.90
17998;DHT22;9124;48.144;17.098;2022-09-16T05:56:38;15.30;99.90
17998;DHT22;9124;48.144;17.098;2022-09-16T06:00:15;15.40;99.90
17998;DHT22;9124;48.144;17.098;2022-09-16T06:03:52;15.50;99.90
17998;DHT22;9124;48.144;17.098;2022-09-16T06:07:30;15.50;99.90
17998;DHT22;9124;48.144;17.098;2022-09-16T06:11:09;15.50;99.90
17998;DHT22;9124;48.144;17.098;2022-09-16T06:14:46;15.60;99.90
17998;DHT22;9124;48.144;17.098;2022-09-16T06:18:24;15.60;99.90
17998;DHT22;9124;48.144;17.098;2022-09-16T06:22:01;15.70;99.90
17998;DHT22;9124;48.144;17.098;2022-09-16T06:25:38;15.70;99.90
17998;DHT22;9124;48.144;17.098;2022-09-16T06:29:16;15.70;99.90
17998;DHT22;9124;48.144;17.098;2022-09-16T06:32:52;15.80;99.90
17998;DHT22;9124;48.144;17.098;2022-09-16T06:36:37;15.80;99.90
17998;DHT22;9124;48.144;17.098;2022-09-16T06:40:14;16.00;99.90
17998;DHT22;9124;48.144;17.098;2022-09-16T06:43:51;16.20;99.90
17998;DHT22;9124;48.144;17.098;2022-09-16T06:47:28;16.30;99.90
17998;DHT22;9124;48.144;17.098;2022-09-16T06:51:10;16.40;99.90
17998;DHT22;9124;48.144;17.098;2022-09-16T06:54:47;16.40;99.90
17998;DHT22;9124;48.144;17.098;2022-09-16T06:58:24;16.50;99.90
17998;DHT22;9124;48.144;17.098;2022-09-16T07:02:01;16.60;99.90
17998;DHT22;9124;48.144;17.098;2022-09-16T07:05:38;16.90;99.90
17998;DHT22;9124;48.144;17.098;2022-09-16T07:09:15;17.30;99.90
17998;DHT22;9124;48.144;17.098;2022-09-16T07:12:52;17.70;99.90
17998;DHT22;9124;48.144;17.098;2022-09-16T07:21:58;17.90;99.90
17998;DHT22;9124;48.144;17.098;2022-09-16T07:25:35;18.50;99.90
17998;DHT22;9124;48.144;17.098;2022-09-16T07:29:14;19.10;99.90
17998;DHT22;9124;48.144;17.098;2022-09-16T07:32:51;19.50;99.90
17998;DHT22;9124;48.144;17.098;2022-09-16T07:36:50;19.80;99.90
17998;DHT22;9124;48.144;17.098;2022-09-16T07:40:27;20.00;99.90
17998;DHT22;9124;48.144;17.098;2022-09-16T07:44:04;20.30;99.90
17998;DHT22;9124;48.144;17.098;2022-09-16T07:47:41;20.20;99.90
17998;DHT22;9124;48.144;17.098;2022-09-16T07:51:20;20.00;99.90
17998;DHT22;9124;48.144;17.098;2022-09-16T07:54:57;20.10;99.90
17998;DHT22;9124;48.144;17.098;2022-09-16T07:58:34;20.30;99.90
17998;DHT22;9124;48.144;17.098;2022-09-16T08:02:11;21.00;99.90
17998;DHT22;9124;48.144;17.098;2022-09-16T08:05:50;21.10;99.90
17998;DHT22;9124;48.144;17.098;2022-09-16T08:09:28;20.90;99.80
17998;DHT22;9124;48.144;17.098;2022-09-16T08:13:05;20.80;99.10
17998;DHT22;9124;48.144;17.098;2022-09-16T08:16:42;20.50;99.00
17998;DHT22;9124;48.144;17.098;2022-09-16T08:20:19;20.40;98.70
17998;DHT22;9124;48.144;17.098;2022-09-16T08:23:56;20.40;98.50
17998;DHT22;9124;48.144;17.098;2022-09-16T08:27:36;20.50;98.20
17998;DHT22;9124;48.144;17.098;2022-09-16T08:31:15;20.60;97.50
17998;DHT22;9124;48.144;17.098;2022-09-16T08:34:51;20.60;97.40
17998;DHT22;9124;48.144;17.098;2022-09-16T08:38:33;20.80;96.90
17998;DHT22;9124;48.144;17.098;2022-09-16T08:42:27;20.80;96.00
17998;DHT22;9124;48.144;17.098;2022-09-16T08:46:16;20.90;95.60
17998;DHT22;9124;48.144;17.098;2022-09-16T08:49:58;21.30;94.90
17998;DHT22;9124;48.144;17.098;2022-09-16T08:57:22;21.50;93.60
17998;DHT22;9124;48.144;17.098;2022-09-16T09:04:52;21.20;91.90
17998;DHT22;9124;48.144;17.098;2022-09-16T09:16:11;21.00;91.30
17998;DHT22;9124;48.144;17.098;2022-09-16T09:20:08;20.90;91.50
17998;DHT22;9124;48.144;17.098;2022-09-16T09:42:22;21.20;90.00
17998;DHT22;9124;48.144;17.098;2022-09-16T09:46:33;21.20;89.10
17998;DHT22;9124;48.144;17.098;2022-09-16T09:54:27;21.60;88.80
17998;DHT22;9124;48.144;17.098;2022-09-16T10:02:00;21.40;86.00
17998;DHT22;9124;48.144;17.098;2022-09-16T10:05:37;21.30;85.70
17998;DHT22;9124;48.144;17.098;2022-09-16T10:09:16;21.50;85.90
17998;DHT22;9124;48.144;17.098;2022-09-16T10:12:53;22.30;84.90
17998;DHT22;9124;48.144;17.098;2022-09-16T10:16:34;24.80;82.60
17998;DHT22;9124;48.144;17.098;2022-09-16T10:20:27;28.20;78.50
17998;DHT22;9124;48.144;17.098;2022-09-16T10:24:05;29.60;70.70
17998;DHT22;9124;48.144;17.098;2022-09-16T10:28:16;28.60;66.30
17998;DHT22;9124;48.144;17.098;2022-09-16T10:31:55;27.40;64.30
17998;DHT22;9124;48.144;17.098;2022-09-16T10:35:37;26.90;64.40
17998;DHT22;9124;48.144;17.098;2022-09-16T10:39:22;26.50;63.90
17998;DHT22;9124;48.144;17.098;2022-09-16T10:43:05;26.00;64.00
17998;DHT22;9124;48.144;17.098;2022-09-16T10:47:15;26.20;62.80
17998;DHT22;9124;48.144;17.098;2022-09-16T10:51:01;26.00;62.30
17998;DHT22;9124;48.144;17.098;2022-09-16T10:54:38;26.10;62.10
17998;DHT22;9124;48.144;17.098;2022-09-16T10:58:17;26.40;61.30
17998;DHT22;9124;48.144;17.098;2022-09-16T11:06:04;25.60;60.40
17998;DHT22;9124;48.144;17.098;2022-09-16T11:09:56;25.10;60.50
17998;DHT22;9124;48.144;17.098;2022-09-16T11:17:58;24.20;61.70
17998;DHT22;9124;48.144;17.098;2022-09-16T11:25:37;24.00;62.20
17998;DHT22;9124;48.144;17.098;2022-09-16T11:33:25;23.70;61.60
17998;DHT22;9124;48.144;17.098;2022-09-16T11:37:19;23.30;61.50
17998;DHT22;9124;48.144;17.098;2022-09-16T11:41:23;23.10;62.00
17998;DHT22;9124;48.144;17.098;2022-09-16T12:03:39;22.60;62.30
17998;DHT22;9124;48.144;17.098;2022-09-16T12:07:25;22.20;63.00
17998;DHT22;9124;48.144;17.098;2022-09-16T12:15:02;22.00;63.30
17998;DHT22;9124;48.144;17.098;2022-09-16T12:18:44;21.80;63.30
17998;DHT22;9124;48.144;17.098;2022-09-16T12:22:29;21.90;63.40
17998;DHT22;9124;48.144;17.098;2022-09-16T12:26:23;22.10;63.40
17998;DHT22;9124;48.144;17.098;2022-09-16T12:30:15;22.10;63.30
17998;DHT22;9124;48.144;17.098;2022-09-16T12:33:58;21.90;63.50
17998;DHT22;9124;48.144;17.098;2022-09-16T12:37:46;21.90;63.10
17998;DHT22;9124;48.144;17.098;2022-09-16T12:50:12;22.10;63.20
17998;DHT22;9124;48.144;17.098;2022-09-16T13:01:46;21.90;63.20
17998;DHT22;9124;48.144;17.098;2022-09-16T13:05:34;21.90;63.00
17998;DHT22;9124;48.144;17.098;2022-09-16T13:09:25;21.70;63.40
17998;DHT22;9124;48.144;17.098;2022-09-16T13:13:03;21.50;63.80
17998;DHT22;9124;48.144;17.098;2022-09-16T13:16:52;21.40;64.10
17998;DHT22;9124;48.144;17.098;2022-09-16T13:20:32;21.30;64.20
17998;DHT22;9124;48.144;17.098;2022-09-16T13:24:22;21.10;64.60
17998;DHT22;9124;48.144;17.098;2022-09-16T13:33:25;20.80;65.00
17998;DHT22;9124;48.144;17.098;2022-09-16T13:37:14;20.70;65.30
17998;DHT22;9124;48.144;17.098;2022-09-16T13:40:57;20.60;65.80
17998;DHT22;9124;48.144;17.098;2022-09-16T13:48:22;20.40;66.50
17998;DHT22;9124;48.144;17.098;2022-09-16T13:52:09;20.30;67.10
17998;DHT22;9124;48.144;17.098;2022-09-16T13:55:48;20.30;67.50
17998;DHT22;9124;48.144;17.098;2022-09-16T14:07:35;20.50;68.20
17998;DHT22;9124;48.144;17.098;2022-09-16T14:15:02;20.20;69.20
17998;DHT22;9124;48.144;17.098;2022-09-16T14:18:41;20.10;69.30
17998;DHT22;9124;48.144;17.098;2022-09-16T14:22:21;20.00;69.80
17998;DHT22;9124;48.144;17.098;2022-09-16T14:26:12;19.90;70.20
17998;DHT22;9124;48.144;17.098;2022-09-16T14:29:54;19.90;71.00
17998;DHT22;9124;48.144;17.098;2022-09-16T14:37:15;19.80;72.40
17998;DHT22;9124;48.144;17.098;2022-09-16T14:40:52;19.90;73.10
17998;DHT22;9124;48.144;17.098;2022-09-16T14:44:33;19.90;73.40
17998;DHT22;9124;48.144;17.098;2022-09-16T14:48:13;19.60;74.00
17998;DHT22;9124;48.144;17.098;2022-09-16T14:51:55;19.40;74.90
17998;DHT22;9124;48.144;17.098;2022-09-16T14:55:34;19.10;75.60
17998;DHT22;9124;48.144;17.098;2022-09-16T14:59:35;18.90;76.10
17998;DHT22;9124;48.144;17.098;2022-09-16T15:03:20;18.80;77.70
17998;DHT22;9124;48.144;17.098;2022-09-16T15:07:12;18.80;78.40
17998;DHT22;9124;48.144;17.098;2022-09-16T15:10:53;18.60;78.90
17998;DHT22;9124;48.144;17.098;2022-09-16T15:14:36;18.60;79.60
17998;DHT22;9124;48.144;17.098;2022-09-16T15:18:26;18.50;79.90
17998;DHT22;9124;48.144;17.098;2022-09-16T15:22:14;18.40;80.40
17998;DHT22;9124;48.144;17.098;2022-09-16T15:25:53;18.40;81.10
17998;DHT22;9124;48.144;17.098;2022-09-16T15:29:33;18.30;81.30
17998;DHT22;9124;48.144;17.098;2022-09-16T15:33:33;18.40;81.90
17998;DHT22;9124;48.144;17.098;2022-09-16T15:37:30;18.50;82.20
17998;DHT22;9124;48.144;17.098;2022-09-16T15:41:11;18.60;82.80
17998;DHT22;9124;48.144;17.098;2022-09-16T15:44:50;18.60;83.10
17998;DHT22;9124;48.144;17.098;2022-09-16T15:53:03;18.50;83.20
17998;DHT22;9124;48.144;17.098;2022-09-16T15:56:38;18.40;83.40
17998;DHT22;9124;48.144;17.098;2022-09-16T16:01:04;18.20;84.10
17998;DHT22;9124;48.144;17.098;2022-09-16T16:04:39;18.10;85.10
17998;DHT22;9124;48.144;17.098;2022-09-16T16:12:55;17.90;86.60
17998;DHT22;9124;48.144;17.098;2022-09-16T16:16:33;17.90;87.00
17998;DHT22;9124;48.144;17.098;2022-09-16T16:20:11;17.80;87.90
17998;DHT22;9124;48.144;17.098;2022-09-16T16:23:48;17.80;88.50
17998;DHT22;9124;48.144;17.098;2022-09-16T16:27:25;17.70;88.90
17998;DHT22;9124;48.144;17.098;2022-09-16T16:31:13;17.60;89.50
17998;DHT22;9124;48.144;17.098;2022-09-16T16:34:51;17.60;90.30
17998;DHT22;9124;48.144;17.098;2022-09-16T16:38:28;17.50;90.30
17998;DHT22;9124;48.144;17.098;2022-09-16T16:42:05;17.50;90.60
17998;DHT22;9124;48.144;17.098;2022-09-16T16:45:41;17.50;90.90
17998;DHT22;9124;48.144;17.098;2022-09-16T16:49:19;17.50;91.10
17998;DHT22;9124;48.144;17.098;2022-09-16T16:52:56;17.40;91.30
17998;DHT22;9124;48.144;17.098;2022-09-16T16:56:32;17.40;91.50
17998;DHT22;9124;48.144;17.098;2022-09-16T17:00:10;17.40;91.90
17998;DHT22;9124;48.144;17.098;2022-09-16T17:03:48;17.30;92.10
17998;DHT22;9124;48.144;17.098;2022-09-16T17:07:25;17.30;92.50
17998;DHT22;9124;48.144;17.098;2022-09-16T17:11:09;17.20;92.60
17998;DHT22;9124;48.144;17.098;2022-09-16T17:14:46;17.20;92.80
17998;DHT22;9124;48.144;17.098;2022-09-16T17:18:23;17.10;93.10
17998;DHT22;9124;48.144;17.098;2022-09-16T17:22:00;17.10;93.30
17998;DHT22;9124;48.144;17.098;2022-09-16T17:25:37;17.10;93.90
17998;DHT22;9124;48.144;17.098;2022-09-16T17:29:14;17.00;93.90
17998;DHT22;9124;48.144;17.098;2022-09-16T17:32:51;17.00;94.10
17998;DHT22;9124;48.144;17.098;2022-09-16T17:36:29;17.00;94.20
17998;DHT22;9124;48.144;17.098;2022-09-16T17:40:06;17.00;94.50
17998;DHT22;9124;48.144;17.098;2022-09-16T17:43:44;16.90;94.70
17998;DHT22;9124;48.144;17.098;2022-09-16T17:47:20;16.90;95.00
17998;DHT22;9124;48.144;17.098;2022-09-16T17:50:58;16.90;95.20
17998;DHT22;9124;48.144;17.098;2022-09-16T17:59:18;16.80;96.10
17998;DHT22;9124;48.144;17.098;2022-09-16T18:02:54;16.80;96.30
17998;DHT22;9124;48.144;17.098;2022-09-16T18:11:06;16.60;97.60
17998;DHT22;9124;48.144;17.098;2022-09-16T18:14:43;16.50;97.90
17998;DHT22;9124;48.144;17.098;2022-09-16T18:18:20;16.50;98.50
17998;DHT22;9124;48.144;17.098;2022-09-16T18:22:04;16.50;99.00
17998;DHT22;9124;48.144;17.098;2022-09-16T18:25:41;16.50;99.70
17998;DHT22;9124;48.144;17.098;2022-09-16T18:29:18;16.40;99.90
17998;DHT22;9124;48.144;17.098;2022-09-16T18:32:55;16.40;99.90
17998;DHT22;9124;48.144;17.098;2022-09-16T18:36:31;16.40;99.90
17998;DHT22;9124;48.144;17.098;2022-09-16T18:40:10;16.40;99.90
17998;DHT22;9124;48.144;17.098;2022-09-16T18:44:16;16.30;99.90
17998;DHT22;9124;48.144;17.098;2022-09-16T18:47:54;16.30;99.90
17998;DHT22;9124;48.144;17.098;2022-09-16T18:57:00;16.20;99.90
17998;DHT22;9124;48.144;17.098;2022-09-16T19:09:52;16.10;99.90
17998;DHT22;9124;48.144;17.098;2022-09-16T19:13:33;16.00;99.90
17998;DHT22;9124;48.144;17.098;2022-09-16T19:22:31;16.00;99.90
17998;DHT22;9124;48.144;17.098;2022-09-16T19:26:08;16.00;99.90
17998;DHT22;9124;48.144;17.098;2022-09-16T19:29:45;16.00;99.90
17998;DHT22;9124;48.144;17.098;2022-09-16T19:33:22;15.90;99.90
17998;DHT22;9124;48.144;17.098;2022-09-16T19:36:58;15.90;99.90
17998;DHT22;9124;48.144;17.098;2022-09-16T19:41:01;15.90;99.90
17998;DHT22;9124;48.144;17.098;2022-09-16T19:44:38;15.90;99.90
17998;DHT22;9124;48.144;17.098;2022-09-16T19:48:15;15.80;99.90
17998;DHT22;9124;48.144;17.098;2022-09-16T19:51:52;15.80;99.90
17998;DHT22;9124;48.144;17.098;2022-09-16T20:04:47;15.70;99.90
17998;DHT22;9124;48.144;17.098;2022-09-16T20:08:25;15.80;99.90
17998;DHT22;9124;48.144;17.098;2022-09-16T20:12:02;15.80;99.90
17998;DHT22;9124;48.144;17.098;2022-09-16T20:15:39;15.80;99.90
17998;DHT22;9124;48.144;17.098;2022-09-16T20:19:18;15.70;99.90
17998;DHT22;9124;48.144;17.098;2022-09-16T20:22:55;15.70;99.90
17998;DHT22;9124;48.144;17.098;2022-09-16T20:26:33;15.70;99.90
17998;DHT22;9124;48.144;17.098;2022-09-16T20:30:10;15.70;99.90
17998;DHT22;9124;48.144;17.098;2022-09-16T20:33:49;15.70;99.90
17998;DHT22;9124;48.144;17.098;2022-09-16T20:37:26;15.70;99.90
17998;DHT22;9124;48.144;17.098;2022-09-16T20:41:08;15.60;99.90
17998;DHT22;9124;48.144;17.098;2022-09-16T20:44:45;15.60;99.90
17998;DHT22;9124;48.144;17.098;2022-09-16T20:48:22;15.40;99.90
17998;DHT22;9124;48.144;17.098;2022-09-16T20:51:58;15.30;99.90
17998;DHT22;9124;48.144;17.098;2022-09-16T20:55:35;15.10;99.90
17998;DHT22;9124;48.144;17.098;2022-09-16T20:59:14;15.00;99.90
17998;DHT22;9124;48.144;17.098;2022-09-16T21:02:52;14.90;99.90
17998;DHT22;9124;48.144;17.098;2022-09-16T21:06:30;14.90;99.90
17998;DHT22;9124;48.144;17.098;2022-09-16T21:10:08;14.80;99.90
17998;DHT22;9124;48.144;17.098;2022-09-16T21:13:51;14.70;99.90
17998;DHT22;9124;48.144;17.098;2022-09-16T21:17:29;14.60;99.90
17998;DHT22;9124;48.144;17.098;2022-09-16T21:21:08;14.50;99.90
17998;DHT22;9124;48.144;17.098;2022-09-16T21:24:47;14.50;99.90
17998;DHT22;9124;48.144;17.098;2022-09-16T21:28:24;14.40;99.90
17998;DHT22;9124;48.144;17.098;2022-09-16T21:32:01;14.30;99.90
17998;DHT22;9124;48.144;17.098;2022-09-16T21:35:39;14.30;99.90
17998;DHT22;9124;48.144;17.098;2022-09-16T21:39:18;14.30;99.90
17998;DHT22;9124;48.144;17.098;2022-09-16T21:42:55;14.20;99.90
17998;DHT22;9124;48.144;17.098;2022-09-16T21:46:36;14.10;99.90
17998;DHT22;9124;48.144;17.098;2022-09-16T21:50:16;14.10;99.90
17998;DHT22;9124;48.144;17.098;2022-09-16T21:53:54;14.00;99.90
17998;DHT22;9124;48.144;17.098;2022-09-16T21:57:30;14.00;99.90
17998;DHT22;9124;48.144;17.098;2022-09-16T22:01:16;13.90;99.90
17998;DHT22;9124;48.144;17.098;2022-09-16T22:25:37;13.70;99.90
17998;DHT22;9124;48.144;17.098;2022-09-16T22:29:14;13.70;99.90
17998;DHT22;9124;48.144;17.098;2022-09-16T22:32:51;13.60;99.90
17998;DHT22;9124;48.144;17.098;2022-09-16T22:36:30;13.60;99.90
17998;DHT22;9124;48.144;17.098;2022-09-16T22:40:07;13.60;99.90
17998;DHT22;9124;48.144;17.098;2022-09-16T22:43:46;13.60;99.90
17998;DHT22;9124;48.144;17.098;2022-09-16T22:47:23;13.60;99.90
17998;DHT22;9124;48.144;17.098;2022-09-16T22:51:01;13.50;99.90
17998;DHT22;9124;48.144;17.098;2022-09-16T22:54:39;13.50;99.90
17998;DHT22;9124;48.144;17.098;2022-09-16T22:58:15;13.50;99.90
17998;DHT22;9124;48.144;17.098;2022-09-16T23:01:52;13.50;99.90
17998;DHT22;9124;48.144;17.098;2022-09-16T23:05:29;13.50;99.90
17998;DHT22;9124;48.144;17.098;2022-09-16T23:09:07;13.50;99.90
17998;DHT22;9124;48.144;17.098;2022-09-16T23:12:44;13.40;99.90
17998;DHT22;9124;48.144;17.098;2022-09-16T23:16:24;13.40;99.90
17998;DHT22;9124;48.144;17.098;2022-09-16T23:20:02;13.40;99.90
17998;DHT22;9124;48.144;17.098;2022-09-16T23:23:41;13.40;99.90
17998;DHT22;9124;48.144;17.098;2022-09-16T23:27:18;13.40;99.90
17998;DHT22;9124;48.144;17.098;2022-09-16T23:30:55;13.30;99.90
17998;DHT22;9124;48.144;17.098;2022-09-16T23:34:32;13.40;99.90
17998;DHT22;9124;48.144;17.098;2022-09-16T23:38:08;13.40;99.90
17998;DHT22;9124;48.144;17.098;2022-09-16T23:41:47;13.30;99.90
17998;DHT22;9124;48.144;17.098;2022-09-16T23:50:56;13.30;99.90
